Time;durP1;ratioP1;P1;durP2;ratioP2;P2;SDS_P1;SDS_P2;PMS_P1;PMS_P2;Temp;Humidity;BMP_temperature;BMP_pressure;BME280_temperature;BME280_humidity;BME280_pressure;Samples;Min_cycle;Max_cycle;Signal;HPM_P1;HPM_P2
2022/07/01 00:00:12;;;;;;;;;;;;;;;22.84;65.75;100605.88;7407177;19;1517;-65
2022/07/01 00:02:43;;;;;;;;;;;;;;;22.94;65.35;100616.47;7406573;19;1438;-64
2022/07/01 00:05:11;;;;;;;;;;;;;;;22.91;65.33;100612.25;7409186;19;1630;-63
2022/07/01 00:07:40;;;;;;;;;;;;;;;22.94;65.48;100611.94;7407141;19;1825;-64
2022/07/01 00:10:08;;;;;;;;;;;;;;;22.93;65.40;100621.03;7408359;19;1520;-64
2022/07/01 00:12:37;;;;;;;;;;;;;;;22.75;65.55;100618.47;7409766;19;1642;-64
2022/07/01 00:15:06;;;;;;;;;;;;;;;22.58;66.23;100622.09;7407542;19;1314;-65
2022/07/01 00:17:34;;;;;;;;;;;;;;;22.58;66.43;100627.50;7408528;19;1650;-63
2022/07/01 00:20:05;;;;;;;;;;;;;;;22.56;66.17;100627.69;7408559;19;1622;-63
2022/07/01 00:22:33;;;;;;;;;;;;;;;22.60;66.17;100620.94;7408170;19;1604;-63
2022/07/01 00:25:01;;;;;;;;;;;;;;;22.57;66.32;100615.88;7408744;19;1547;-65
2022/07/01 00:27:30;;;;;;;;;;;;;;;22.51;66.13;100600.34;7408573;19;1857;-63
2022/07/01 00:29:58;;;;;;;;;;;;;;;22.53;66.14;100617.22;7407465;19;1369;-64
2022/07/01 00:32:27;;;;;;;;;;;;;;;22.54;66.19;100616.22;7406224;19;1578;-63
2022/07/01 00:34:55;;;;;;;;;;;;;;;22.55;66.37;100627.84;7407760;19;1642;-64
2022/07/01 00:37:26;;;;;;;;;;;;;;;22.66;65.69;100627.53;7407936;19;1331;-63
2022/07/01 00:39:54;;;;;;;;;;;;;;;22.78;65.82;100634.31;7408012;19;1403;-63
2022/07/01 00:42:22;;;;;;;;;;;;;;;22.79;65.82;100630.59;7407000;19;1550;-65
2022/07/01 00:44:51;;;;;;;;;;;;;;;22.75;65.82;100631.94;7406983;19;1363;-63
2022/07/01 00:47:19;;;;;;;;;;;;;;;22.70;65.59;100630.72;7405717;19;1855;-64
2022/07/01 00:49:47;;;;;;;;;;;;;;;22.72;65.49;100628.72;7407297;19;1685;-63
2022/07/01 00:52:15;;;;;;;;;;;;;;;22.80;65.60;100624.22;7407440;19;1497;-63
2022/07/01 00:54:47;;;;;;;;;;;;;;;22.84;65.26;100617.50;7406854;19;1637;-64
2022/07/01 00:57:15;;;;;;;;;;;;;;;22.88;65.27;100617.13;7408657;19;1072;-63
2022/07/01 00:59:43;;;;;;;;;;;;;;;22.88;65.06;100618.00;7406380;19;1697;-63
2022/07/01 01:02:12;;;;;;;;;;;;;;;22.87;65.04;100613.59;7405621;19;1589;-63
2022/07/01 01:04:41;;;;;;;;;;;;;;;22.85;65.23;100623.72;7406720;19;1753;-64
2022/07/01 01:07:10;;;;;;;;;;;;;;;22.67;65.88;100614.91;7406476;19;1871;-64
2022/07/01 01:09:38;;;;;;;;;;;;;;;22.57;65.83;100621.25;7407430;19;1630;-64
2022/07/01 01:12:11;;;;;;;;;;;;;;;22.59;65.97;100629.19;7407705;19;1575;-64
2022/07/01 01:14:46;;;;;;;;;;;;;;;22.53;66.11;100617.22;7406306;19;1717;-64
2022/07/01 01:17:14;;;;;;;;;;;;;;;22.54;66.11;100602.75;7405837;19;1771;-64
2022/07/01 01:19:43;;;;;;;;;;;;;;;22.53;66.11;100619.06;7406089;19;1689;-65
2022/07/01 01:22:17;;;;;;;;;;;;;;;22.62;65.82;100629.72;7406207;19;1638;-64
2022/07/01 01:24:45;;;;;;;;;;;;;;;22.81;65.15;100633.13;7405941;19;1630;-63
2022/07/01 01:27:14;;;;;;;;;;;;;;;22.77;65.05;100629.91;7405333;19;1857;-64
2022/07/01 01:29:42;;;;;;;;;;;;;;;22.71;65.43;100632.44;7406201;19;1693;-63
2022/07/01 01:32:11;;;;;;;;;;;;;;;22.70;65.46;100628.03;7406082;19;1558;-64
2022/07/01 01:34:40;;;;;;;;;;;;;;;22.75;65.10;100628.41;7405837;19;1539;-62
2022/07/01 01:37:10;;;;;;;;;;;;;;;22.80;65.24;100628.75;7405587;19;1630;-64
2022/07/01 01:39:41;;;;;;;;;;;;;;;22.63;65.54;100625.16;7407207;19;1559;-63
2022/07/01 01:42:10;;;;;;;;;;;;;;;22.43;65.91;100622.72;7405230;19;1361;-64
2022/07/01 01:44:38;;;;;;;;;;;;;;;22.43;65.91;100649.66;7405250;19;1641;-63
2022/07/01 01:47:06;;;;;;;;;;;;;;;22.43;65.72;100629.97;7405271;19;1760;-64
2022/07/01 01:49:35;;;;;;;;;;;;;;;22.46;66.00;100637.72;7405475;19;1534;-64
2022/07/01 01:52:03;;;;;;;;;;;;;;;22.43;65.76;100629.97;7404418;19;1442;-64
2022/07/01 01:54:32;;;;;;;;;;;;;;;22.35;66.15;100620.00;7405779;19;1193;-64
2022/07/01 01:57:02;;;;;;;;;;;;;;;22.40;65.84;100627.59;7405060;19;1543;-64
2022/07/01 01:59:31;;;;;;;;;;;;;;;22.43;65.97;100624.56;7404094;19;1753;-64
2022/07/01 02:01:59;;;;;;;;;;;;;;;22.50;65.68;100641.81;7393622;19;1629;-64
2022/07/01 02:04:28;;;;;;;;;;;;;;;22.41;65.84;100626.59;7402855;19;1610;-65
2022/07/01 02:06:56;;;;;;;;;;;;;;;22.32;65.74;100628.41;7404303;19;1524;-65
2022/07/01 02:09:25;;;;;;;;;;;;;;;22.31;65.85;100647.44;7403063;19;1854;-65
2022/07/01 02:11:54;;;;;;;;;;;;;;;22.27;65.80;100635.28;7402415;19;1820;-64
2022/07/01 02:14:25;;;;;;;;;;;;;;;22.29;65.82;100644.03;7404758;19;1354;-64
2022/07/01 02:16:54;;;;;;;;;;;;;;;22.44;65.57;100642.41;7404261;19;1528;-65
2022/07/01 02:19:22;;;;;;;;;;;;;;;22.45;65.23;100641.44;7404490;19;1752;-65
2022/07/01 02:21:52;;;;;;;;;;;;;;;22.52;65.14;100638.91;7404162;19;1673;-64
2022/07/01 02:24:21;;;;;;;;;;;;;;;22.57;65.18;100645.53;7405064;19;1613;-65
2022/07/01 02:26:49;;;;;;;;;;;;;;;22.63;64.76;100633.25;7405047;19;1524;-65
2022/07/01 02:29:18;;;;;;;;;;;;;;;22.63;64.74;100647.56;7400271;19;1865;-65
2022/07/01 02:31:49;;;;;;;;;;;;;;;22.67;64.81;100650.78;7401707;19;1618;-64
2022/07/01 02:34:17;;;;;;;;;;;;;;;22.67;64.66;100652.63;7401831;19;1338;-65
2022/07/01 02:36:46;;;;;;;;;;;;;;;22.61;64.73;100654.97;7402836;19;1338;-65
2022/07/01 02:39:14;;;;;;;;;;;;;;;22.64;64.79;100659.19;7410639;19;1586;-65
2022/07/01 02:44:24;;;;;;;;;;;;;;;22.61;64.98;100660.34;7411033;19;1386;-65
2022/07/01 02:46:55;;;;;;;;;;;;;;;22.77;64.84;100664.13;7410893;19;1694;-68
2022/07/01 02:49:24;;;;;;;;;;;;;;;22.79;64.54;100657.56;7405681;19;1857;-67
2022/07/01 02:51:52;;;;;;;;;;;;;;;22.74;64.64;100643.75;7411721;19;1296;-67
2022/07/01 02:54:21;;;;;;;;;;;;;;;22.78;64.59;100645.09;7408587;19;1363;-66
2022/07/01 02:56:49;;;;;;;;;;;;;;;22.73;64.75;100652.81;7406510;19;1294;-67
2022/07/01 02:59:18;;;;;;;;;;;;;;;22.71;64.83;100662.09;7410607;19;1357;-66
2022/07/01 03:01:46;;;;;;;;;;;;;;;22.71;64.72;100672.88;7405420;19;1500;-60
2022/07/01 03:04:18;;;;;;;;;;;;;;;22.66;64.86;100664.41;7407810;19;1332;-64
2022/07/01 03:06:46;;;;;;;;;;;;;;;22.74;64.90;100669.84;7408541;19;1709;-62
2022/07/01 03:09:15;;;;;;;;;;;;;;;22.72;65.01;100667.31;7407389;19;1895;-64
2022/07/01 03:11:43;;;;;;;;;;;;;;;22.61;65.04;100662.22;7410154;19;1296;-64
2022/07/01 03:14:12;;;;;;;;;;;;;;;22.58;64.83;100655.31;7407110;19;1664;-64
2022/07/01 03:16:41;;;;;;;;;;;;;;;22.62;64.80;100672.84;7408908;19;1439;-64
2022/07/01 03:19:09;;;;;;;;;;;;;;;22.61;64.48;100664.91;7409677;19;1380;-64
2022/07/01 03:21:40;;;;;;;;;;;;;;;22.46;64.70;100664.66;7407354;19;1244;-65
2022/07/01 03:24:09;;;;;;;;;;;;;;;22.38;64.89;100653.84;7409273;19;1351;-64
2022/07/01 03:26:37;;;;;;;;;;;;;;;22.32;65.14;100670.66;7409238;19;1313;-64
2022/07/01 03:29:05;;;;;;;;;;;;;;;22.38;65.10;100672.69;7406950;19;1872;-64
2022/07/01 03:31:34;;;;;;;;;;;;;;;22.53;64.62;100681.88;7408455;19;1353;-64
2022/07/01 03:34:02;;;;;;;;;;;;;;;22.60;65.20;100674.00;7408996;19;1350;-65
2022/07/01 03:36:30;;;;;;;;;;;;;;;22.63;64.74;100682.59;7410571;19;1264;-64
2022/07/01 03:39:03;;;;;;;;;;;;;;;22.68;64.77;100676.75;7408312;19;1469;-64
2022/07/01 03:41:31;;;;;;;;;;;;;;;22.69;64.81;100680.28;7408617;19;1784;-64
2022/07/01 03:43:59;;;;;;;;;;;;;;;22.70;64.84;100673.88;7409145;19;1595;-64
2022/07/01 03:46:31;;;;;;;;;;;;;;;22.74;64.75;100676.09;7409136;19;1530;-64
2022/07/01 03:48:59;;;;;;;;;;;;;;;22.71;64.77;100683.66;7404035;19;1858;-64
2022/07/01 03:51:28;;;;;;;;;;;;;;;22.66;64.61;100673.38;7409130;19;1594;-64
2022/07/01 03:56:39;;;;;;;;;;;;;;;22.63;64.57;100669.13;7409690;19;1344;-64
2022/07/01 03:59:08;;;;;;;;;;;;;;;22.71;64.53;100676.41;7408375;19;1622;-64
2022/07/01 04:01:36;;;;;;;;;;;;;;;22.66;64.72;100683.28;7404589;19;1441;-65
2022/07/01 04:04:05;;;;;;;;;;;;;;;22.61;65.21;100691.88;7404841;19;1576;-64
2022/07/01 04:06:33;;;;;;;;;;;;;;;22.44;65.27;100696.31;7407376;19;1539;-64
2022/07/01 04:09:02;;;;;;;;;;;;;;;22.32;65.60;100701.16;7405741;19;1853;-64
2022/07/01 04:11:30;;;;;;;;;;;;;;;22.39;65.61;100696.78;7404477;19;1459;-64
2022/07/01 04:14:01;;;;;;;;;;;;;;;22.35;65.66;100691.91;7406221;19;1721;-64
2022/07/01 04:16:30;;;;;;;;;;;;;;;22.39;65.37;100704.03;7407654;19;1547;-64
2022/07/01 04:18:58;;;;;;;;;;;;;;;22.52;65.34;100709.00;7407772;19;1354;-64
2022/07/01 04:24:08;;;;;;;;;;;;;;;22.65;65.09;100714.78;7409833;19;762;-64
2022/07/01 04:26:36;;;;;;;;;;;;;;;22.70;64.68;100708.91;7405669;19;1560;-63
2022/07/01 04:29:08;;;;;;;;;;;;;;;22.70;64.73;100706.22;7405796;19;1852;-64
2022/07/01 04:31:36;;;;;;;;;;;;;;;22.67;64.91;100698.47;7408520;19;1348;-64
2022/07/01 04:34:04;;;;;;;;;;;;;;;22.71;64.81;100716.00;7408758;19;1524;-63
2022/07/01 04:36:33;;;;;;;;;;;;;;;22.68;64.90;100713.63;7408256;19;1505;-64
2022/07/01 04:39:01;;;;;;;;;;;;;;;22.61;65.07;100725.03;7407421;19;1490;-63
2022/07/01 04:44:13;;;;;;;;;;;;;;;22.28;68.49;100691.66;7406400;19;1625;-64
2022/07/01 04:46:42;;;;;;;;;;;;;;;22.34;68.37;100707.22;7406109;19;1299;-64
2022/07/01 04:49:10;;;;;;;;;;;;;;;22.31;69.52;100696.75;7405392;19;1849;-64
2022/07/01 04:51:38;;;;;;;;;;;;;;;22.47;67.91;100706.78;7407249;19;1394;-64
2022/07/01 04:54:08;;;;;;;;;;;;;;;22.49;69.34;100715.56;7407367;19;1277;-64
2022/07/01 04:56:37;;;;;;;;;;;;;;;22.58;68.52;100720.00;7405274;19;1390;-64
2022/07/01 04:59:06;;;;;;;;;;;;;;;22.77;68.67;100726.13;7405525;19;1410;-64
2022/07/01 05:01:37;;;;;;;;;;;;;;;22.71;67.73;100726.78;7400001;19;1480;-62
2022/07/01 05:04:05;;;;;;;;;;;;;;;22.67;68.64;100717.34;7402973;19;1391;-63
2022/07/01 05:06:34;;;;;;;;;;;;;;;22.82;67.75;100730.03;7402555;19;1421;-60
2022/07/01 05:09:02;;;;;;;;;;;;;;;23.06;67.18;100728.50;7406101;19;1858;-56
2022/07/01 05:11:30;;;;;;;;;;;;;;;23.13;66.49;100717.88;7404500;19;1677;-60
2022/07/01 05:13:59;;;;;;;;;;;;;;;23.11;68.60;100728.00;7404377;19;1729;-62
2022/07/01 05:16:27;;;;;;;;;;;;;;;23.05;67.87;100701.69;7405901;19;1233;-63
2022/07/01 05:24:19;;;;;;;;;;;;;;;23.36;67.31;100708.16;7405235;19;1250;-60
2022/07/01 05:26:47;;;;;;;;;;;;;;;23.57;66.93;100698.72;7406268;19;1219;-59
2022/07/01 05:29:15;;;;;;;;;;;;;;;23.74;66.65;100705.00;7405257;19;1838;-65
2022/07/01 05:31:44;;;;;;;;;;;;;;;23.78;66.76;100695.59;7405586;19;1280;-64
2022/07/01 05:34:15;;;;;;;;;;;;;;;23.84;66.72;100707.56;7404905;19;1299;-58
2022/07/01 05:36:43;;;;;;;;;;;;;;;23.82;66.37;100707.72;7406111;19;1653;-66
2022/07/01 05:39:12;;;;;;;;;;;;;;;23.74;66.65;100696.91;7407458;19;971;-58
2022/07/01 05:41:40;;;;;;;;;;;;;;;23.77;66.95;100716.31;7405750;19;1622;-58
2022/07/01 05:44:09;;;;;;;;;;;;;;;23.75;66.56;100701.28;7404926;19;1531;-57
2022/07/01 05:46:37;;;;;;;;;;;;;;;23.76;66.77;100711.06;7406859;19;1414;-64
2022/07/01 05:49:05;;;;;;;;;;;;;;;23.72;66.92;100715.13;7404738;19;1869;-57
2022/07/01 05:51:36;;;;;;;;;;;;;;;23.66;67.05;100699.59;7404146;19;1347;-57
2022/07/01 05:54:05;;;;;;;;;;;;;;;23.69;66.83;100718.16;7404809;19;1319;-57
2022/07/01 05:56:33;;;;;;;;;;;;;;;23.65;67.10;100709.53;7405435;19;1403;-62
2022/07/01 05:59:01;;;;;;;;;;;;;;;23.68;66.73;100730.81;7404454;19;1614;-57
2022/07/01 06:01:30;;;;;;;;;;;;;;;23.72;66.70;100721.38;7402739;19;1390;-63
2022/07/01 06:03:58;;;;;;;;;;;;;;;23.71;66.78;100719.66;7403486;19;1422;-62
2022/07/01 06:06:26;;;;;;;;;;;;;;;23.78;66.67;100709.91;7400784;19;1281;-57
2022/07/01 06:08:57;;;;;;;;;;;;;;;23.84;66.49;100715.69;7402726;19;1863;-57
2022/07/01 06:11:26;;;;;;;;;;;;;;;23.64;67.17;100724.06;7402104;19;1355;-57
2022/07/01 06:13:54;;;;;;;;;;;;;;;22.67;67.09;100723.56;7404038;19;1748;-63
2022/07/01 06:16:22;;;;;;;;;;;;;;;22.02;66.87;100723.94;7404137;19;1264;-63
2022/07/01 06:18:51;;;;;;;;;;;;;;;21.71;66.28;100726.22;7401537;19;1273;-57
2022/07/01 06:21:19;;;;;;;;;;;;;;;21.44;65.13;100728.81;7399816;19;1770;-56
2022/07/01 06:23:48;;;;;;;;;;;;;;;21.34;64.73;100713.72;7405155;19;1300;-56
2022/07/01 06:26:19;;;;;;;;;;;;;;;21.28;64.43;100727.78;7402691;19;1418;-56
2022/07/01 06:28:47;;;;;;;;;;;;;;;21.25;64.00;100731.63;7402889;19;1859;-63
2022/07/01 06:31:15;;;;;;;;;;;;;;;21.18;63.19;100736.75;7404288;19;1364;-56
2022/07/01 06:33:44;;;;;;;;;;;;;;;21.21;62.53;100720.31;7403995;19;1701;-64
2022/07/01 06:36:14;;;;;;;;;;;;;;;21.18;62.31;100725.16;7403926;19;1641;-56
2022/07/01 06:38:42;;;;;;;;;;;;;;;21.08;62.46;100737.81;7403489;19;1233;-56
2022/07/01 06:43:54;;;;;;;;;;;;;;;21.22;62.72;100734.59;7400846;19;1561;-57
2022/07/01 06:46:22;;;;;;;;;;;;;;;21.22;63.23;100734.59;7401165;19;1626;-57
2022/07/01 06:48:50;;;;;;;;;;;;;;;21.18;63.49;100739.44;7400952;19;1861;-56
2022/07/01 06:51:19;;;;;;;;;;;;;;;21.27;63.02;100732.31;7400516;19;1419;-57
2022/07/01 06:53:47;;;;;;;;;;;;;;;21.23;63.51;100739.00;7402260;19;1838;-57
2022/07/01 06:56:16;;;;;;;;;;;;;;;21.30;63.31;100717.72;7403065;19;1558;-63
2022/07/01 06:58:44;;;;;;;;;;;;;;;21.26;63.59;100727.91;7403533;19;1567;-63
2022/07/01 07:01:15;;;;;;;;;;;;;;;21.24;63.81;100728.06;7402264;19;1544;-57
2022/07/01 07:03:43;;;;;;;;;;;;;;;21.23;63.48;100734.47;7403088;19;1343;-63
2022/07/01 07:06:11;;;;;;;;;;;;;;;21.20;64.04;100731.22;7404048;19;1607;-57
2022/07/01 07:08:40;;;;;;;;;;;;;;;21.18;64.32;100733.22;7402857;19;1642;-56
2022/07/01 07:11:08;;;;;;;;;;;;;;;21.26;63.62;100727.91;7401533;19;1845;-57
2022/07/01 07:13:37;;;;;;;;;;;;;;;21.18;64.03;100727.84;7403831;19;1366;-63
2022/07/01 07:16:05;;;;;;;;;;;;;;;21.24;63.88;100730.75;7401477;19;1725;-64
2022/07/01 07:18:37;;;;;;;;;;;;;;;21.31;63.37;100724.75;7402411;19;1538;-57
2022/07/01 07:21:06;;;;;;;;;;;;;;;21.20;63.87;100734.75;7402181;19;1670;-57
2022/07/01 07:23:34;;;;;;;;;;;;;;;21.18;64.09;100735.91;7403568;19;1752;-64
2022/07/01 07:26:03;;;;;;;;;;;;;;;21.16;63.94;100727.13;7409950;19;1610;-57
2022/07/01 07:28:31;;;;;;;;;;;;;;;21.24;63.80;100721.84;7410942;19;1559;-63
2022/07/01 07:30:59;;;;;;;;;;;;;;;21.18;63.69;100743.97;7407556;19;1899;-63
2022/07/01 07:33:28;;;;;;;;;;;;;;;21.10;63.89;100733.13;7409800;19;1793;-57
2022/07/01 07:35:58;;;;;;;;;;;;;;;21.17;63.89;100736.88;7410602;19;1370;-57
2022/07/01 07:38:27;;;;;;;;;;;;;;;21.13;64.01;100730.13;7408759;19;1764;-63
2022/07/01 07:40:55;;;;;;;;;;;;;;;21.13;64.21;100748.94;7408356;19;1539;-63
2022/07/01 07:43:23;;;;;;;;;;;;;;;21.15;63.72;100747.81;7407182;19;1193;-57
2022/07/01 07:45:52;;;;;;;;;;;;;;;21.18;63.97;100757.41;7407401;19;1277;-56
2022/07/01 07:48:20;;;;;;;;;;;;;;;21.25;63.79;100753.13;7406988;19;1740;-57
2022/07/01 07:50:48;;;;;;;;;;;;;;;21.24;64.16;100736.13;7405861;19;1845;-65
2022/07/01 07:53:19;;;;;;;;;;;;;;;21.22;64.58;100743.50;7405998;19;1300;-64
2022/07/01 07:55:48;;;;;;;;;;;;;;;21.24;64.28;100740.69;7405375;19;1489;-57
2022/07/01 07:58:17;;;;;;;;;;;;;;;21.19;64.36;100713.41;7408222;19;1007;-64
2022/07/01 08:00:45;;;;;;;;;;;;;;;21.21;64.12;100730.25;7406182;19;1813;-63
2022/07/01 08:03:13;;;;;;;;;;;;;;;21.16;64.46;100706.47;7407991;19;1419;-64
2022/07/01 08:05:42;;;;;;;;;;;;;;;21.14;64.16;100723.75;7408311;19;1552;-63
2022/07/01 08:08:10;;;;;;;;;;;;;;;21.16;64.55;100721.75;7409375;19;1641;-64
2022/07/01 08:10:41;;;;;;;;;;;;;;;21.16;64.34;100724.44;7405702;19;1857;-64
2022/07/01 08:13:10;;;;;;;;;;;;;;;21.17;64.24;100726.13;7408673;19;1567;-57
2022/07/01 08:15:38;;;;;;;;;;;;;;;21.19;64.08;100729.53;7408983;19;1442;-64
2022/07/01 08:18:06;;;;;;;;;;;;;;;21.12;64.21;100729.28;7408716;19;1725;-57
2022/07/01 08:20:34;;;;;;;;;;;;;;;21.22;63.87;100731.91;7408498;19;1511;-63
2022/07/01 08:23:03;;;;;;;;;;;;;;;21.12;64.45;100721.22;7408798;19;1641;-57
2022/07/01 08:25:31;;;;;;;;;;;;;;;21.14;64.08;100723.75;7405613;19;1442;-63
2022/07/01 08:28:02;;;;;;;;;;;;;;;21.13;64.33;100717.53;7408590;19;1425;-63
2022/07/01 08:30:30;;;;;;;;;;;;;;;21.14;64.40;100721.06;7404764;19;1863;-58
2022/07/01 08:32:59;;;;;;;;;;;;;;;21.13;64.19;100716.66;7407026;19;1613;-63
2022/07/01 08:35:28;;;;;;;;;;;;;;;21.14;64.21;100718.38;7407226;19;1311;-57
2022/07/01 08:37:56;;;;;;;;;;;;;;;21.10;64.32;100707.06;7406411;19;1273;-63
2022/07/01 08:40:26;;;;;;;;;;;;;;;21.16;64.39;100722.59;7406908;19;1305;-63
2022/07/01 08:42:57;;;;;;;;;;;;;;;21.85;63.25;100704.13;7405757;19;1485;-64
2022/07/01 08:45:29;;;;;;;;;;;;;;;22.42;61.53;100714.47;7407734;19;1645;-64
2022/07/01 08:48:00;;;;;;;;;;;;;;;22.72;61.42;100709.59;7407065;19;1524;-59
2022/07/01 08:50:29;;;;;;;;;;;;;;;22.94;60.91;100702.78;7405226;19;1857;-57
2022/07/01 08:52:58;;;;;;;;;;;;;;;23.04;61.30;100708.94;7408475;19;1047;-57
2022/07/01 08:55:26;;;;;;;;;;;;;;;23.21;61.64;100726.00;7406391;19;1505;-66
2022/07/01 08:57:54;;;;;;;;;;;;;;;23.26;61.17;100722.78;7407409;19;1575;-56
2022/07/01 09:00:23;;;;;;;;;;;;;;;23.26;61.81;100729.06;7406404;19;1638;-68
2022/07/01 09:02:54;;;;;;;;;;;;;;;23.24;62.53;100720.28;7405931;19;1340;-57
2022/07/01 09:05:23;;;;;;;;;;;;;;;23.28;62.31;100731.56;7408319;19;1318;-68
2022/07/01 09:07:57;;;;;;;;;;;;;;;23.26;62.18;100726.34;7407852;19;1543;-69
2022/07/01 09:10:25;;;;;;;;;;;;;;;23.39;62.15;100724.00;7407922;19;1857;-74
2022/07/01 09:12:55;;;;;;;;;;;;;;;23.36;62.27;100728.91;7408717;19;1390;-72
2022/07/01 09:15:24;;;;;;;;;;;;;;;23.39;62.59;100729.41;7411157;19;1382;-58
2022/07/01 09:17:56;;;;;;;;;;;;;;;23.43;62.64;100713.72;7406620;19;1307;-60
2022/07/01 09:20:28;;;;;;;;;;;;;;;23.43;62.63;100709.16;7407095;19;1295;-58
2022/07/01 09:23:03;;;;;;;;;;;;;;;23.46;62.62;100721.50;7407529;19;1307;-58
2022/07/01 09:25:33;;;;;;;;;;;;;;;23.51;62.36;100731.78;7406729;19;1918;-59
2022/07/01 09:28:12;;;;;;;;;;;;;;;23.49;62.64;100706.81;7407181;19;1775;-70
2022/07/01 09:30:41;;;;;;;;;;;;;;;23.57;62.73;100709.53;7400843;19;1857;-68
2022/07/01 09:33:16;;;;;;;;;;;;;;;23.58;63.08;100713.94;7404357;19;1290;-57
2022/07/01 09:35:45;;;;;;;;;;;;;;;23.61;62.93;100705.47;7400899;19;1438;-56
2022/07/01 09:38:14;;;;;;;;;;;;;;;23.69;62.78;100701.94;7404353;19;1324;-63
2022/07/01 09:40:50;;;;;;;;;;;;;;;23.58;63.49;100705.84;7403096;19;1544;-63
2022/07/01 09:43:19;;;;;;;;;;;;;;;22.98;65.15;100709.56;7402307;19;1303;-57
2022/07/01 09:45:54;;;;;;;;;;;;;;;22.27;64.82;100699.94;7405940;19;1583;-62
2022/07/01 09:48:26;;;;;;;;;;;;;;;21.77;64.34;100714.84;7403508;19;1689;-62
2022/07/01 09:50:54;;;;;;;;;;;;;;;21.36;64.48;100706.34;7403837;19;1857;-57
2022/07/01 09:53:23;;;;;;;;;;;;;;;21.37;63.39;100697.28;7405702;19;1496;-62
2022/07/01 09:55:51;;;;;;;;;;;;;;;21.29;63.33;100691.81;7402979;19;1768;-63
2022/07/01 09:58:19;;;;;;;;;;;;;;;21.20;62.97;100696.25;7402112;19;1202;-59
2022/07/01 10:00:48;;;;;;;;;;;;;;;21.20;62.83;100698.94;7401599;19;1579;-63
2022/07/01 10:03:16;;;;;;;;;;;;;;;21.11;62.68;100681.88;7401415;19;1284;-58
2022/07/01 10:05:49;;;;;;;;;;;;;;;21.21;61.80;100697.97;7403075;19;1528;-57
2022/07/01 10:08:32;;;;;;;;;;;;;;;21.60;60.84;100687.75;7405436;19;1358;-57
2022/07/01 10:11:10;;;;;;;;;;;;;;;22.30;59.62;100678.88;7400672;19;1874;-57
2022/07/01 10:13:41;;;;;;;;;;;;;;;22.73;59.23;100682.47;7404779;19;1382;-63
2022/07/01 10:16:09;;;;;;;;;;;;;;;22.95;58.99;100682.91;7403810;19;1265;-55
2022/07/01 10:18:37;;;;;;;;;;;;;;;23.06;59.42;100674.53;7404718;19;1630;-55
2022/07/01 10:21:10;;;;;;;;;;;;;;;23.15;59.49;100667.31;7405002;19;1543;-57
2022/07/01 10:23:41;;;;;;;;;;;;;;;23.21;59.09;100672.03;7405628;19;1387;-60
2022/07/01 10:26:10;;;;;;;;;;;;;;;23.27;59.42;100676.75;7405336;19;1542;-63
2022/07/01 10:28:46;;;;;;;;;;;;;;;23.28;59.83;100667.69;7404069;19;1289;-62
2022/07/01 10:31:16;;;;;;;;;;;;;;;23.29;59.55;100666.66;7401685;19;1845;-58
2022/07/01 10:33:46;;;;;;;;;;;;;;;23.33;59.79;100670.69;7403176;19;1458;-58
2022/07/01 10:36:21;;;;;;;;;;;;;;;23.30;60.29;100665.66;7402229;19;1352;-64
2022/07/01 10:39:06;;;;;;;;;;;;;;;23.00;63.47;100659.81;7404198;19;1491;-63
2022/07/01 10:41:35;;;;;;;;;;;;;;;21.92;63.41;100662.13;7402032;19;1532;-58
2022/07/01 10:44:05;;;;;;;;;;;;;;;21.26;63.13;100658.00;7400297;19;1540;-58
2022/07/01 10:46:40;;;;;;;;;;;;;;;20.94;62.34;100670.09;7403848;19;1499;-68
2022/07/01 10:49:09;;;;;;;;;;;;;;;20.82;61.98;100671.31;7403353;19;1366;-59
2022/07/01 10:51:56;;;;;;;;;;;;;;;20.90;61.28;100674.09;7402013;19;1850;-64
2022/07/01 10:54:39;;;;;;;;;;;;;;;20.91;61.26;100664.16;7400072;19;1234;-64
2022/07/01 10:57:22;;;;;;;;;;;;;;;20.90;61.53;100662.50;7402398;19;1355;-57
2022/07/01 10:59:51;;;;;;;;;;;;;;;20.86;62.58;100654.72;7406858;19;1494;-58
2022/07/01 11:02:20;;;;;;;;;;;;;;;20.80;62.91;100659.84;7406738;19;1362;-63
2022/07/01 11:04:49;;;;;;;;;;;;;;;20.65;62.68;100651.44;7409746;19;1282;-64
2022/07/01 11:07:20;;;;;;;;;;;;;;;20.48;62.16;100658.41;7410340;19;1238;-58
2022/07/01 11:09:48;;;;;;;;;;;;;;;20.55;61.45;100661.34;7408852;19;1378;-58
2022/07/01 11:12:17;;;;;;;;;;;;;;;20.53;61.22;100653.47;7407217;19;1857;-58
2022/07/01 11:14:46;;;;;;;;;;;;;;;20.52;61.76;100632.94;7393823;19;1367;-65
2022/07/01 11:17:14;;;;;;;;;;;;;;;20.65;62.45;100636.19;7406002;19;1408;-63
2022/07/01 11:19:45;;;;;;;;;;;;;;;20.83;62.85;100651.47;7407157;19;1314;-63
2022/07/01 11:22:13;;;;;;;;;;;;;;;20.85;63.66;100641.44;7400916;19;1920;-59
2022/07/01 11:24:44;;;;;;;;;;;;;;;20.95;63.78;100644.91;7406772;19;1399;-58
2022/07/01 11:27:13;;;;;;;;;;;;;;;20.91;64.32;100632.78;7408605;19;1294;-63
2022/07/01 11:29:41;;;;;;;;;;;;;;;20.87;64.60;100636.78;7405789;19;1370;-63
2022/07/01 11:32:10;;;;;;;;;;;;;;;20.77;64.65;100634.13;7406712;19;1849;-58
2022/07/01 11:34:39;;;;;;;;;;;;;;;20.55;63.93;100626.44;7406172;19;1361;-58
2022/07/01 11:40:04;;;;;;;;;;;;;;;20.33;62.06;100611.53;7410379;19;1632;-58
2022/07/01 11:42:32;;;;;;;;;;;;;;;20.34;61.75;100624.00;7404138;19;1381;-58
2022/07/01 11:45:01;;;;;;;;;;;;;;;20.70;61.08;100626.81;7407350;19;1328;-58
2022/07/01 11:47:29;;;;;;;;;;;;;;;20.77;61.56;100617.16;7406936;19;1671;-58
2022/07/01 11:49:58;;;;;;;;;;;;;;;20.67;62.55;100617.19;7407880;19;1466;-64
2022/07/01 11:52:27;;;;;;;;;;;;;;;20.69;63.49;100603.63;7404402;19;1853;-61
2022/07/01 11:55:00;;;;;;;;;;;;;;;20.72;64.08;100606.84;7407253;19;1306;-65
2022/07/01 11:57:28;;;;;;;;;;;;;;;20.80;64.25;100608.78;7404572;19;1499;-64
2022/07/01 11:59:58;;;;;;;;;;;;;;;20.81;64.61;100595.22;7405874;19;1517;-64
2022/07/01 12:02:27;;;;;;;;;;;;;;;20.78;64.92;100603.56;7403787;19;1335;-64
2022/07/01 12:04:55;;;;;;;;;;;;;;;20.81;65.08;100588.97;7405568;19;1346;-58
2022/07/01 12:07:25;;;;;;;;;;;;;;;20.79;65.15;100574.84;7407231;19;1427;-64
2022/07/01 12:09:53;;;;;;;;;;;;;;;20.82;65.41;100580.75;7405850;19;1206;-63
2022/07/01 12:12:27;;;;;;;;;;;;;;;20.84;65.59;100581.44;7404337;19;1861;-63
2022/07/01 12:14:56;;;;;;;;;;;;;;;20.84;65.66;100576.06;7407347;19;1207;-64
2022/07/01 12:17:25;;;;;;;;;;;;;;;20.82;65.74;100574.56;7407401;19;1210;-58
2022/07/01 12:19:54;;;;;;;;;;;;;;;20.82;66.32;100558.44;7406668;19;1244;-64
2022/07/01 12:22:24;;;;;;;;;;;;;;;20.70;66.43;100570.41;7407056;19;1281;-58
2022/07/01 12:24:53;;;;;;;;;;;;;;;20.60;65.60;100565.91;7406157;19;1261;-58
2022/07/01 12:27:25;;;;;;;;;;;;;;;20.36;64.68;100561.06;7407354;19;1297;-58
2022/07/01 12:29:55;;;;;;;;;;;;;;;20.46;64.71;100566.41;7405966;19;1270;-64
2022/07/01 12:32:25;;;;;;;;;;;;;;;20.61;64.25;100561.38;7403643;19;1849;-63
2022/07/01 12:34:54;;;;;;;;;;;;;;;20.70;64.60;100565.03;7406558;19;1326;-59
2022/07/01 12:37:23;;;;;;;;;;;;;;;20.82;64.88;100556.56;7406413;19;1441;-58
2022/07/01 12:39:53;;;;;;;;;;;;;;;20.73;65.62;100557.50;7406791;19;1374;-64
2022/07/01 12:42:33;;;;;;;;;;;;;;;20.65;65.64;100552.88;7404520;19;1353;-64
2022/07/01 12:45:02;;;;;;;;;;;;;;;20.57;64.62;100555.47;7404259;19;1464;-58
2022/07/01 12:47:31;;;;;;;;;;;;;;;20.32;64.58;100561.53;7405415;19;1461;-58
2022/07/01 12:50:20;;;;;;;;;;;;;;;20.21;63.85;100555.38;7405927;19;1346;-59
2022/07/01 12:52:59;;;;;;;;;;;;;;;20.15;63.27;100561.31;7403910;19;1865;-63
2022/07/01 12:55:28;;;;;;;;;;;;;;;20.12;63.15;100556.25;7404449;19;1339;-63
2022/07/01 12:58:01;;;;;;;;;;;;;;;20.74;62.11;100544.91;7404007;19;1492;-57
2022/07/01 13:00:31;;;;;;;;;;;;;;;21.40;64.33;100544.47;7401424;19;1528;-57
2022/07/01 13:03:00;;;;;;;;;;;;;;;22.09;62.21;100555.38;7402303;19;1396;-56
2022/07/01 13:05:29;;;;;;;;;;;;;;;22.54;60.87;100546.16;7403788;19;1379;-63
2022/07/01 13:07:58;;;;;;;;;;;;;;;22.71;60.75;100546.19;7404093;19;1341;-58
2022/07/01 13:10:26;;;;;;;;;;;;;;;22.82;60.08;100537.78;7402854;19;1853;-57
2022/07/01 13:12:55;;;;;;;;;;;;;;;22.91;59.84;100535.94;7403501;19;1853;-60
2022/07/01 13:15:26;;;;;;;;;;;;;;;22.95;60.19;100548.06;7405009;19;1198;-58
2022/07/01 13:17:55;;;;;;;;;;;;;;;23.11;60.45;100549.97;7406028;19;1815;-62
2022/07/01 13:20:23;;;;;;;;;;;;;;;23.17;59.98;100538.50;7405787;19;1647;-59